Погода Татуина 2 недели

Сан-Паулу, Бразилия

22 июля-04 августа
  • 22июля
    Сегодня
    +10°
    +27°
    Ясно и безоблачно
    ВремяПогодаТемператураВлажностьДавлениеВетер, м/сВероятность осадков
    00:00Ясно и безоблачно+13°C94 %713 мм1.7 м/с5 %
    03:00Ясно и безоблачно+13°C94 %713 мм1.2 м/с5 %
    06:00Ясно и безоблачно+12°C95 %714 мм1.7 м/с5 %
    09:00Ясно и безоблачно+17°C73 %716 мм0.8 м/с5 %
    12:00Ясно и безоблачно+24°C43 %716 мм0.6 м/с5 %
    15:00Ясно и безоблачно+27°C36 %715 мм1.6 м/с5 %
    18:00Ясно и безоблачно+23°C53 %714 мм3.5 м/с5 %
    21:00Ясно и безоблачно+18°C78 %715 мм3.4 м/с5 %
  • 23июля
    Вторник
    +9°
    +28°
    Небольшая облачность
    ВремяПогодаТемператураВлажностьДавлениеВетер, м/сВероятность осадков
    00:00Ясно и безоблачно+14°C88 %715 мм2.2 м/с5 %
    03:00Ясно и безоблачно+12°C85 %714 мм2.2 м/с5 %
    06:00Ясно и безоблачно+11°C89 %714 мм2.2 м/с5 %
    09:00Ясно и безоблачно+16°C57 %716 мм1.4 м/с5 %
    12:00Ясно и безоблачно+24°C29 %716 мм1.8 м/с5 %
    15:00Небольшая облачность+28°C21 %715 мм1.5 м/с5 %
    18:00Ясно и безоблачно+22°C43 %714 мм2.4 м/с5 %
    21:00Практически безоблачно+18°C76 %715 мм2.6 м/с5 %
  • 24июля
    Среда
    +11°
    +28°
    Облачно с прояснениями
    ВремяПогодаТемператураВлажностьДавлениеВетер, м/сВероятность осадков
    00:00Небольшая облачность+14°C77 %714 мм2.0 м/с5 %
    03:00Практически безоблачно+12°C81 %713 мм2.3 м/с5 %
    06:00Ясно и безоблачно+11°C84 %714 мм2.3 м/с5 %
    09:00Практически безоблачно+16°C60 %716 мм0.7 м/с5 %
    12:00Облачно с прояснениями+24°C32 %717 мм1.7 м/с5 %
    15:00Облачно с прояснениями+28°C25 %715 мм0.8 м/с5 %
    18:00Облачно с прояснениями+25°C36 %715 мм1.2 м/с5 %
    21:00Небольшая облачность+18°C83 %714 мм3.2 м/с5 %
  • 25июля
    Четверг
    +12°
    +29°
    Ясно и безоблачно
    ВремяПогодаТемператураВлажностьДавлениеВетер, м/сВероятность осадков
    00:00Практически безоблачно+15°C95 %714 мм2.0 м/с5 %
    03:00Небольшая облачность+15°C90 %713 мм1.4 м/с5 %
    06:00Ясно и безоблачно+12°C95 %713 мм2.0 м/с5 %
    09:00Ясно и безоблачно+18°C68 %715 мм1.3 м/с5 %
    12:00Ясно и безоблачно+26°C36 %715 мм3.2 м/с5 %
    15:00Ясно и безоблачно+29°C28 %713 мм2.9 м/с5 %
    18:00Ясно и безоблачно+25°C45 %712 мм2.2 м/с5 %
    21:00Ясно и безоблачно+20°C60 %712 мм1.3 м/с5 %
  • 26июля
    Пятница
    +15°
    +29°
    Облачно с прояснениями
    ВремяПогодаТемператураВлажностьДавлениеВетер, м/сВероятность осадков
    00:00Ясно и безоблачно+17°C71 %712 мм1.7 м/с5 %
    03:00Ясно и безоблачно+16°C73 %711 мм1.5 м/с5 %
    06:00Ясно и безоблачно+13°C84 %711 мм2.0 м/с5 %
    09:00Практически безоблачно+18°C56 %713 мм0.6 м/с5 %
    12:00Облачно с прояснениями+26°C35 %714 мм1.7 м/с5 %
    15:00Облачно с прояснениями+29°C28 %713 мм0.6 м/с5 %
    18:00Облачно с прояснениями+24°C46 %712 мм1.8 м/с5 %
    21:00Облачно с прояснениями+20°C57 %712 мм2.6 м/с5 %
Мы используем cookies
Соглашаюсь